Time;durP1;ratioP1;P1;durP2;ratioP2;P2;SDS_P1;SDS_P2;PMS_P1;PMS_P2;Temp;Humidity;BMP_temperature;BMP_pressure;BME280_temperature;BME280_humidity;BME280_pressure;Samples;Min_cycle;Max_cycle;Signal;HPM_P1;HPM_P2
2023/08/12 00:00:34;;;;;;;9.93;4.80;;;19.80;99.90;;;;;;5094017;28;20040;-56
2023/08/12 00:02:59;;;;;;;8.93;4.90;;;19.80;99.90;;;;;;5093450;28;20940;-56
2023/08/12 00:05:26;;;;;;;8.95;4.88;;;19.80;99.90;;;;;;5083343;28;20398;-55
2023/08/12 00:07:51;;;;;;;9.20;5.00;;;19.80;99.90;;;;;;5092080;28;20044;-55
2023/08/12 00:10:17;;;;;;;8.38;4.47;;;19.80;99.90;;;;;;5076488;28;20043;-57
2023/08/12 00:12:43;;;;;;;8.65;4.50;;;19.80;99.90;;;;;;5093520;28;20623;-56
2023/08/12 00:15:10;;;;;;;8.75;4.65;;;19.80;99.90;;;;;;5079470;28;20040;-55
2023/08/12 00:17:37;;;;;;;8.77;4.25;;;19.70;99.90;;;;;;5081939;28;20059;-55
2023/08/12 00:20:08;;;;;;;6.43;4.25;;;19.70;99.90;;;;;;5097874;28;20051;-56
2023/08/12 00:22:34;;;;;;;7.90;4.20;;;19.70;99.90;;;;;;5095392;27;20055;-55
2023/08/12 00:25:00;;;;;;;7.15;4.20;;;19.70;99.90;;;;;;5096834;28;20040;-56
2023/08/12 00:27:26;;;;;;;8.73;4.05;;;19.60;99.90;;;;;;5096800;27;20043;-55
2023/08/12 00:29:51;;;;;;;7.93;4.15;;;19.60;99.90;;;;;;5098201;27;20070;-56
2023/08/12 00:32:18;;;;;;;7.97;3.80;;;19.60;99.90;;;;;;5086912;28;20039;-55
2023/08/12 00:34:44;;;;;;;6.45;3.83;;;19.60;99.90;;;;;;5096615;27;20052;-57
2023/08/12 00:37:09;;;;;;;7.47;3.58;;;19.60;99.90;;;;;;5096093;28;20054;-56
2023/08/12 00:39:35;;;;;;;7.95;3.58;;;19.60;99.90;;;;;;5095294;27;20484;-56
2023/08/12 00:42:01;;;;;;;8.23;4.30;;;19.60;99.90;;;;;;5097136;28;20028;-56
2023/08/12 00:44:27;;;;;;;7.88;4.07;;;19.60;99.90;;;;;;5098632;28;20083;-55
2023/08/12 00:46:54;;;;;;;6.65;3.83;;;19.60;99.90;;;;;;5097410;28;20110;-56
2023/08/12 00:49:21;;;;;;;6.20;3.80;;;19.60;99.90;;;;;;5095691;27;20067;-54
2023/08/12 00:51:49;;;;;;;10.23;4.18;;;19.50;99.90;;;;;;5097248;27;20478;-57
2023/08/12 00:54:16;;;;;;;8.43;3.83;;;19.50;99.90;;;;;;5096485;28;20100;-55
2023/08/12 00:56:43;;;;;;;7.97;3.90;;;19.50;99.90;;;;;;5081218;28;20505;-55
2023/08/12 00:59:10;;;;;;;6.22;3.63;;;19.50;99.90;;;;;;5094778;28;20035;-56
2023/08/12 01:01:40;;;;;;;7.97;4.10;;;19.50;99.90;;;;;;5095810;27;20071;-57
2023/08/12 01:04:06;;;;;;;6.13;3.78;;;19.50;99.90;;;;;;5089611;27;20074;-55
2023/08/12 01:06:32;;;;;;;7.70;3.63;;;19.50;99.90;;;;;;5094115;28;20036;-56
2023/08/12 01:08:57;;;;;;;6.45;3.50;;;19.50;99.90;;;;;;5097212;27;20458;-54
2023/08/12 01:11:32;;;;;;;5.40;3.17;;;19.40;99.90;;;;;;5095897;27;20055;-56
2023/08/12 01:13:59;;;;;;;8.25;3.30;;;19.40;99.90;;;;;;5095531;28;20067;-56
2023/08/12 01:16:29;;;;;;;7.55;3.75;;;19.40;99.90;;;;;;5096170;28;20533;-56
2023/08/12 01:18:55;;;;;;;5.05;3.00;;;19.40;99.90;;;;;;5095758;28;20046;-54
2023/08/12 01:21:24;;;;;;;6.18;3.00;;;19.40;99.90;;;;;;5094011;27;20048;-55
2023/08/12 01:23:50;;;;;;;8.18;3.17;;;19.40;99.90;;;;;;5094882;27;20075;-56
2023/08/12 01:26:16;;;;;;;7.10;3.40;;;19.40;99.90;;;;;;5096726;28;20180;-53
2023/08/12 01:28:42;;;;;;;6.18;2.90;;;19.40;99.90;;;;;;5095472;27;20554;-58
2023/08/12 01:31:52;;;;;;;8.52;2.95;;;19.40;99.90;;;;;;5078196;28;20044;-56
2023/08/12 01:34:39;;;;;;;6.10;2.83;;;19.40;99.90;;;;;;5094721;28;20086;-56
2023/08/12 01:37:06;;;;;;;8.13;3.25;;;19.30;99.90;;;;;;5095356;27;20464;-55
2023/08/12 01:39:35;;;;;;;5.80;3.40;;;19.30;99.90;;;;;;5095394;28;20711;-56
2023/08/12 01:42:01;;;;;;;9.23;3.47;;;19.30;99.90;;;;;;5095646;28;20052;-56
2023/08/12 01:44:28;;;;;;;6.35;3.97;;;19.20;99.90;;;;;;5095457;28;20036;-56
2023/08/12 01:46:54;;;;;;;7.25;4.15;;;19.20;99.90;;;;;;5096135;28;20082;-55
2023/08/12 01:49:19;;;;;;;8.25;3.70;;;19.20;99.90;;;;;;5096232;28;20466;-56
2023/08/12 01:51:45;;;;;;;8.63;4.68;;;19.20;99.90;;;;;;5082010;28;20032;-56
2023/08/12 01:54:11;;;;;;;7.50;4.35;;;19.20;99.90;;;;;;5094344;28;20039;-57
2023/08/12 01:56:36;;;;;;;10.85;4.30;;;19.10;99.90;;;;;;5096318;27;20071;-55
2023/08/12 01:59:02;;;;;;;10.63;5.03;;;19.10;99.90;;;;;;5094853;27;20048;-55
2023/08/12 02:01:28;;;;;;;7.95;4.55;;;19.10;99.90;;;;;;5095578;28;20063;-54
2023/08/12 02:03:53;;;;;;;9.77;4.60;;;19.10;99.90;;;;;;5075856;28;20028;-57
2023/08/12 02:06:19;;;;;;;10.50;5.07;;;19.10;99.90;;;;;;5093686;27;20442;-56
2023/08/12 02:08:45;;;;;;;8.40;4.95;;;19.00;99.90;;;;;;5067947;27;20391;-56
2023/08/12 02:11:11;;;;;;;10.48;5.38;;;19.10;99.90;;;;;;5094471;27;20521;-56
2023/08/12 02:13:36;;;;;;;8.77;5.05;;;19.00;99.90;;;;;;5094877;28;20031;-56
2023/08/12 02:16:02;;;;;;;15.80;5.72;;;19.00;99.90;;;;;;5096208;27;20124;-55
2023/08/12 02:18:28;;;;;;;9.57;5.20;;;19.00;99.90;;;;;;5092947;28;20502;-54
2023/08/12 02:20:53;;;;;;;12.68;5.75;;;19.00;99.90;;;;;;5095815;28;20040;-57
2023/08/12 02:23:19;;;;;;;9.65;5.93;;;19.00;99.90;;;;;;5093470;28;20091;-55
2023/08/12 02:25:45;;;;;;;9.20;5.60;;;18.90;99.90;;;;;;5095107;28;20036;-55
2023/08/12 02:28:10;;;;;;;10.30;5.32;;;18.90;99.90;;;;;;5095045;27;20104;-56
2023/08/12 02:30:36;;;;;;;11.30;5.90;;;18.90;99.90;;;;;;5093549;27;20093;-56
2023/08/12 02:33:02;;;;;;;10.65;6.13;;;18.90;99.90;;;;;;5095521;27;20067;-55
2023/08/12 02:35:28;;;;;;;10.10;6.15;;;18.90;99.90;;;;;;5095177;28;20036;-57
2023/08/12 02:37:53;;;;;;;10.38;5.90;;;18.90;99.90;;;;;;5092776;28;20130;-56
2023/08/12 02:40:19;;;;;;;9.02;5.55;;;18.90;99.90;;;;;;5094913;28;20108;-57
2023/08/12 02:42:45;;;;;;;11.70;6.25;;;18.90;99.90;;;;;;5091665;27;20104;-55
2023/08/12 02:45:10;;;;;;;14.80;5.90;;;18.90;99.90;;;;;;5094905;28;20044;-56
2023/08/12 02:47:36;;;;;;;12.90;6.80;;;18.80;99.90;;;;;;5075732;28;20032;-56
2023/08/12 02:50:02;;;;;;;9.65;5.68;;;18.80;99.90;;;;;;5095222;27;20142;-55
2023/08/12 02:52:28;;;;;;;12.05;5.57;;;18.80;99.90;;;;;;5095267;28;20118;-57
2023/08/12 02:54:56;;;;;;;13.50;5.88;;;18.80;99.90;;;;;;5093732;28;20050;-56
2023/08/12 02:57:22;;;;;;;13.00;5.97;;;18.90;99.90;;;;;;5094136;28;20058;-55
2023/08/12 02:59:47;;;;;;;11.45;6.05;;;18.80;99.90;;;;;;5076525;28;20027;-55
2023/08/12 03:02:13;;;;;;;10.98;6.45;;;18.90;99.90;;;;;;5093522;27;20114;-54
2023/08/12 03:04:39;;;;;;;11.32;6.05;;;18.80;99.90;;;;;;5095610;28;20047;-55
2023/08/12 03:07:04;;;;;;;9.57;6.10;;;18.80;99.90;;;;;;5093453;28;20046;-56
2023/08/12 03:09:30;;;;;;;9.95;6.07;;;18.80;99.90;;;;;;5094255;27;20386;-56
2023/08/12 03:11:56;;;;;;;10.35;6.30;;;18.80;99.90;;;;;;5068166;28;20471;-57
2023/08/12 03:14:22;;;;;;;9.00;6.20;;;18.90;99.90;;;;;;5094583;28;20044;-58
2023/08/12 03:16:47;;;;;;;10.73;6.47;;;18.80;99.90;;;;;;5094712;28;20042;-55
2023/08/12 03:19:13;;;;;;;11.77;6.28;;;18.80;99.90;;;;;;5093448;28;20040;-55
2023/08/12 03:21:39;;;;;;;10.63;6.45;;;18.80;99.90;;;;;;5093115;27;20047;-56
2023/08/12 03:24:05;;;;;;;10.60;6.95;;;18.80;99.90;;;;;;5094692;28;20039;-56
2023/08/12 03:26:30;;;;;;;9.65;6.60;;;18.80;99.90;;;;;;5081725;28;20036;-56
2023/08/12 03:28:56;;;;;;;10.55;7.07;;;18.80;99.90;;;;;;5094978;28;20044;-55
2023/08/12 03:31:22;;;;;;;13.23;6.57;;;18.70;99.90;;;;;;5094345;28;20497;-57
2023/08/12 03:33:47;;;;;;;10.88;7.38;;;18.70;99.90;;;;;;5076848;28;20122;-55
2023/08/12 03:36:13;;;;;;;11.45;6.75;;;18.70;99.90;;;;;;5076252;28;20092;-57
2023/08/12 03:38:39;;;;;;;12.05;7.50;;;18.80;99.90;;;;;;5093970;28;20393;-58
2023/08/12 03:41:04;;;;;;;15.00;7.40;;;18.80;99.90;;;;;;5097346;28;20044;-56
2023/08/12 03:43:30;;;;;;;15.15;7.38;;;18.70;99.90;;;;;;5093365;28;20044;-56
2023/08/12 03:45:56;;;;;;;15.27;7.75;;;18.80;99.90;;;;;;5058407;28;20042;-56
2023/08/12 03:48:22;;;;;;;12.40;7.78;;;18.80;99.90;;;;;;5096040;28;20051;-56
2023/08/12 03:50:47;;;;;;;10.75;7.00;;;18.80;99.90;;;;;;5080650;28;20044;-56
2023/08/12 03:53:13;;;;;;;12.73;7.65;;;18.80;99.90;;;;;;5096475;27;20364;-57
2023/08/12 03:55:39;;;;;;;10.95;7.43;;;18.80;99.90;;;;;;5098974;27;20106;-55
2023/08/12 03:58:05;;;;;;;15.93;7.82;;;18.80;99.90;;;;;;5097611;27;20050;-55
2023/08/12 04:00:31;;;;;;;16.45;7.78;;;18.80;99.90;;;;;;5099104;27;20065;-55
2023/08/12 04:02:56;;;;;;;15.55;8.32;;;18.80;99.90;;;;;;5100368;27;20466;-54
2023/08/12 04:05:22;;;;;;;13.55;8.65;;;18.80;99.90;;;;;;5078361;28;20047;-57
2023/08/12 04:07:48;;;;;;;13.20;8.88;;;18.80;99.90;;;;;;5099599;27;20040;-56
2023/08/12 04:10:14;;;;;;;16.70;8.60;;;18.90;99.90;;;;;;5096761;28;20086;-54
2023/08/12 04:12:43;;;;;;;16.23;8.52;;;18.80;99.90;;;;;;5077864;28;20047;-55
2023/08/12 04:15:10;;;;;;;16.30;9.00;;;18.90;99.90;;;;;;5079923;28;21100;-55
2023/08/12 04:17:36;;;;;;;13.85;8.07;;;18.90;99.90;;;;;;5096255;27;20035;-55
2023/08/12 04:20:05;;;;;;;19.17;9.57;;;18.90;99.90;;;;;;5096629;27;20069;-56
2023/08/12 04:22:31;;;;;;;15.63;9.15;;;18.90;99.90;;;;;;5094911;27;20092;-56
2023/08/12 04:24:56;;;;;;;13.93;8.75;;;18.90;99.90;;;;;;5096286;28;20438;-54
2023/08/12 04:27:22;;;;;;;18.88;9.77;;;18.90;99.90;;;;;;5097082;27;20035;-55
2023/08/12 04:29:48;;;;;;;16.48;9.13;;;19.00;99.90;;;;;;5098064;27;20512;-57
2023/08/12 04:32:14;;;;;;;17.40;10.13;;;19.00;99.90;;;;;;5079302;27;20035;-56
2023/08/12 04:34:39;;;;;;;17.23;9.02;;;19.00;99.90;;;;;;5096414;28;20129;-56
2023/08/12 04:37:05;;;;;;;15.93;9.75;;;19.00;99.90;;;;;;5096541;27;20384;-56
2023/08/12 04:39:32;;;;;;;17.98;9.30;;;19.00;99.90;;;;;;5097354;28;20460;-56
2023/08/12 04:41:58;;;;;;;18.02;9.77;;;19.00;99.90;;;;;;5098800;27;20036;-57
2023/08/12 04:44:23;;;;;;;15.65;9.70;;;19.00;99.90;;;;;;5096393;27;20040;-55
2023/08/12 04:46:50;;;;;;;16.60;9.18;;;19.10;99.90;;;;;;5097473;27;20040;-56
2023/08/12 04:49:16;;;;;;;16.85;10.15;;;19.00;99.90;;;;;;5095196;28;20036;-54
2023/08/12 04:51:41;;;;;;;16.73;9.50;;;19.10;99.90;;;;;;5096554;28;20046;-56
2023/08/12 04:54:07;;;;;;;16.80;9.75;;;19.10;99.90;;;;;;5085607;28;20394;-55
2023/08/12 04:56:33;;;;;;;14.55;9.30;;;19.10;99.90;;;;;;5096557;28;20035;-54
2023/08/12 04:58:59;;;;;;;14.57;9.02;;;19.10;99.90;;;;;;5096307;28;20046;-54
2023/08/12 05:01:25;;;;;;;15.52;9.85;;;19.10;99.90;;;;;;5096828;27;20040;-55
2023/08/12 05:03:50;;;;;;;15.90;9.45;;;19.10;99.90;;;;;;5095951;28;20032;-55
2023/08/12 05:06:16;;;;;;;15.50;9.20;;;19.10;99.90;;;;;;5096098;27;20039;-56
2023/08/12 05:08:42;;;;;;;15.52;9.15;;;19.10;99.90;;;;;;5096841;27;20050;-55
2023/08/12 05:11:07;;;;;;;13.27;9.27;;;19.20;99.90;;;;;;5097617;27;20038;-55
2023/08/12 05:13:33;;;;;;;13.07;8.05;;;19.20;99.90;;;;;;5095763;28;20052;-55
2023/08/12 05:15:59;;;;;;;13.32;8.25;;;19.20;99.90;;;;;;5096801;27;20416;-57
2023/08/12 05:18:26;;;;;;;16.23;8.38;;;19.20;99.90;;;;;;5096579;27;20051;-57
2023/08/12 05:20:52;;;;;;;14.38;8.55;;;19.20;99.90;;;;;;5077542;28;20035;-55
2023/08/12 05:23:20;;;;;;;13.55;8.45;;;19.30;99.90;;;;;;5076469;28;20052;-55
2023/08/12 05:25:46;;;;;;;13.52;8.23;;;19.30;99.90;;;;;;5096474;28;20437;-58
2023/08/12 05:28:11;;;;;;;13.38;8.73;;;19.40;99.90;;;;;;5096530;27;20570;-58
2023/08/12 05:30:38;;;;;;;14.20;8.52;;;19.40;99.90;;;;;;5095595;27;20381;-56
2023/08/12 05:33:04;;;;;;;11.93;8.23;;;19.50;99.90;;;;;;5095117;28;20066;-58
2023/08/12 05:35:34;;;;;;;12.60;8.38;;;19.50;99.90;;;;;;5095906;27;20050;-56
2023/08/12 05:38:00;;;;;;;13.77;8.40;;;19.60;99.90;;;;;;5095414;27;20066;-57
2023/08/12 05:40:25;;;;;;;15.40;8.38;;;19.60;99.90;;;;;;5095859;27;20040;-55
2023/08/12 05:42:51;;;;;;;13.65;8.32;;;19.70;99.90;;;;;;5094271;27;20043;-56
2023/08/12 05:45:17;;;;;;;13.70;8.50;;;19.80;99.90;;;;;;5078850;28;20487;-55
2023/08/12 05:47:43;;;;;;;14.73;8.82;;;19.80;99.90;;;;;;5094562;28;20147;-55
2023/08/12 05:50:09;;;;;;;15.85;8.25;;;19.90;99.90;;;;;;5095796;28;20036;-56
2023/08/12 05:52:34;;;;;;;15.50;8.38;;;19.90;99.90;;;;;;5094128;27;20066;-56
2023/08/12 05:55:00;;;;;;;14.73;8.80;;;19.90;99.90;;;;;;5094631;28;20039;-55
2023/08/12 05:57:26;;;;;;;15.23;8.68;;;19.90;99.90;;;;;;5095811;28;20047;-56
2023/08/12 05:59:52;;;;;;;13.68;7.68;;;20.00;99.90;;;;;;5059325;28;20163;-56
2023/08/12 06:02:18;;;;;;;13.93;8.02;;;20.00;99.90;;;;;;5094503;27;20515;-57
2023/08/12 06:04:44;;;;;;;17.05;8.55;;;20.00;99.90;;;;;;5074472;28;20126;-55
2023/08/12 06:07:10;;;;;;;14.93;8.15;;;20.10;99.90;;;;;;5094610;27;20035;-57
2023/08/12 06:09:35;;;;;;;16.20;8.95;;;20.20;99.90;;;;;;5095575;28;20487;-55
2023/08/12 06:12:01;;;;;;;13.25;8.13;;;20.20;99.90;;;;;;5095414;27;20039;-55
2023/08/12 06:14:27;;;;;;;14.55;8.55;;;20.20;99.90;;;;;;5096329;27;20713;-56
2023/08/12 06:16:52;;;;;;;12.23;8.07;;;20.30;99.90;;;;;;5095448;28;20049;-56
2023/08/12 06:19:18;;;;;;;11.98;8.30;;;20.40;99.90;;;;;;5080202;28;20131;-55
2023/08/12 06:21:44;;;;;;;17.08;8.65;;;20.40;99.90;;;;;;5076515;28;20052;-55
2023/08/12 06:24:09;;;;;;;14.88;8.80;;;20.40;99.90;;;;;;5094635;28;20402;-56
2023/08/12 06:26:35;;;;;;;16.73;8.60;;;20.40;99.90;;;;;;5095634;27;20145;-57
2023/08/12 06:29:01;;;;;;;15.57;8.60;;;20.40;99.90;;;;;;5076293;28;20040;-57
2023/08/12 06:31:26;;;;;;;13.43;9.13;;;20.50;99.90;;;;;;5094913;28;20039;-57
2023/08/12 06:33:52;;;;;;;14.25;8.77;;;20.40;99.90;;;;;;5096055;27;20046;-54
2023/08/12 06:36:18;;;;;;;18.33;8.68;;;20.50;99.90;;;;;;5094518;27;20040;-56
2023/08/12 06:38:44;;;;;;;18.23;9.77;;;20.50;99.90;;;;;;5094083;28;20051;-57
2023/08/12 06:41:09;;;;;;;15.07;9.40;;;20.50;99.90;;;;;;5078901;28;20043;-57
2023/08/12 06:43:35;;;;;;;17.88;9.50;;;20.50;99.90;;;;;;5094395;27;20375;-56
2023/08/12 06:46:01;;;;;;;15.52;9.65;;;20.50;99.90;;;;;;5094575;27;20480;-56
2023/08/12 06:48:27;;;;;;;17.48;10.68;;;20.50;99.90;;;;;;5096078;28;20035;-56
2023/08/12 06:50:54;;;;;;;21.30;9.70;;;20.50;99.90;;;;;;5093792;28;20035;-55
2023/08/12 06:53:20;;;;;;;15.10;9.45;;;20.50;99.90;;;;;;5062183;28;20039;-56
2023/08/12 06:55:46;;;;;;;21.50;10.43;;;20.50;99.90;;;;;;5093910;27;20050;-57
2023/08/12 06:58:12;;;;;;;14.95;10.18;;;20.50;99.90;;;;;;5094862;28;20055;-55
2023/08/12 07:00:38;;;;;;;18.02;10.40;;;20.50;99.90;;;;;;5096751;27;20434;-56
2023/08/12 07:03:04;;;;;;;15.15;9.82;;;20.50;99.90;;;;;;5075700;28;20051;-58
2023/08/12 07:05:29;;;;;;;17.42;9.88;;;20.50;99.90;;;;;;5096019;28;20562;-54
2023/08/12 07:07:55;;;;;;;16.40;10.15;;;20.50;99.90;;;;;;5093672;28;20032;-56
2023/08/12 07:10:21;;;;;;;17.50;10.95;;;20.50;99.90;;;;;;5093100;28;20036;-56
2023/08/12 07:12:46;;;;;;;22.55;10.88;;;20.60;99.90;;;;;;5094568;28;20416;-55
2023/08/12 07:15:12;;;;;;;18.27;10.50;;;20.60;99.90;;;;;;5093452;28;20482;-56
2023/08/12 07:17:38;;;;;;;20.52;11.00;;;20.60;99.90;;;;;;5093947;28;20167;-56
2023/08/12 07:20:04;;;;;;;16.33;10.02;;;20.60;99.90;;;;;;5093994;28;20043;-56
2023/08/12 07:22:30;;;;;;;16.95;10.05;;;20.60;99.90;;;;;;5074392;28;20048;-56
2023/08/12 07:24:56;;;;;;;15.85;10.25;;;20.60;99.90;;;;;;5094460;28;20119;-56
2023/08/12 07:27:21;;;;;;;18.75;10.93;;;20.60;99.90;;;;;;5095071;28;20046;-56
2023/08/12 07:29:47;;;;;;;24.48;11.75;;;20.70;99.90;;;;;;5093740;28;20035;-54
2023/08/12 07:32:13;;;;;;;18.33;10.90;;;20.70;99.90;;;;;;5077958;28;20038;-56
2023/08/12 07:34:38;;;;;;;16.42;10.98;;;20.70;99.90;;;;;;5093814;28;20040;-56
2023/08/12 07:37:04;;;;;;;18.83;11.48;;;20.80;99.90;;;;;;5065794;28;20043;-56
2023/08/12 07:39:30;;;;;;;18.38;11.45;;;20.80;99.90;;;;;;5093727;28;20075;-56
2023/08/12 07:41:56;;;;;;;16.65;11.18;;;20.80;99.90;;;;;;5094651;28;20482;-55
2023/08/12 07:44:22;;;;;;;18.83;12.07;;;20.90;99.90;;;;;;5093110;28;20047;-56
2023/08/12 07:46:47;;;;;;;20.08;11.90;;;20.90;99.90;;;;;;5074501;28;20402;-57
2023/08/12 07:49:14;;;;;;;26.40;12.38;;;20.90;99.90;;;;;;5093706;28;20154;-57
2023/08/12 07:51:39;;;;;;;18.60;11.32;;;20.90;99.90;;;;;;5095362;28;20101;-56
2023/08/12 07:54:06;;;;;;;21.17;12.32;;;20.90;99.90;;;;;;5093482;28;20511;-56
2023/08/12 07:56:31;;;;;;;21.60;12.70;;;20.90;99.90;;;;;;5076041;28;20148;-56
2023/08/12 07:58:57;;;;;;;20.65;12.23;;;20.90;99.90;;;;;;5094157;28;20145;-56
2023/08/12 08:01:23;;;;;;;19.77;11.95;;;20.90;99.90;;;;;;5092702;28;20517;-56
2023/08/12 08:03:48;;;;;;;18.85;12.38;;;20.90;99.90;;;;;;5094951;28;20036;-56
2023/08/12 08:06:14;;;;;;;20.75;12.52;;;21.00;99.90;;;;;;5091257;28;20162;-57
2023/08/12 08:08:40;;;;;;;24.73;13.10;;;21.00;99.90;;;;;;5093004;28;20455;-58
2023/08/12 08:11:06;;;;;;;20.15;12.52;;;21.00;99.90;;;;;;5091327;28;20040;-56
2023/08/12 08:13:32;;;;;;;22.80;12.55;;;21.00;99.90;;;;;;5075785;28;20350;-56
2023/08/12 08:15:57;;;;;;;25.38;12.52;;;21.00;99.90;;;;;;5094624;28;20077;-55
2023/08/12 08:18:23;;;;;;;20.00;12.40;;;21.10;99.90;;;;;;5092644;28;20059;-56
2023/08/12 08:20:49;;;;;;;21.95;13.13;;;21.00;99.90;;;;;;5094815;28;20044;-56
2023/08/12 08:23:14;;;;;;;19.52;13.50;;;21.10;99.90;;;;;;5091790;28;20124;-57
2023/08/12 08:25:40;;;;;;;23.42;13.82;;;21.10;99.90;;;;;;5075046;28;20425;-55
2023/08/12 08:28:06;;;;;;;20.08;13.13;;;21.00;99.90;;;;;;5094487;28;20040;-57
2023/08/12 08:30:31;;;;;;;22.55;13.25;;;21.00;99.90;;;;;;5094551;28;20591;-56
2023/08/12 08:32:57;;;;;;;18.75;13.30;;;21.00;99.90;;;;;;5091551;28;20036;-58
2023/08/12 08:35:23;;;;;;;27.08;13.80;;;21.10;99.90;;;;;;5095833;27;20075;-57
2023/08/12 08:37:48;;;;;;;20.23;12.82;;;21.10;99.90;;;;;;5096726;27;20066;-57
2023/08/12 08:40:14;;;;;;;17.70;12.90;;;21.10;99.90;;;;;;5067001;28;20518;-56
2023/08/12 08:42:42;;;;;;;24.95;14.10;;;21.10;99.90;;;;;;5079509;28;20096;-57
2023/08/12 08:45:12;;;;;;;21.00;13.65;;;21.10;99.90;;;;;;5095500;28;20128;-56
2023/08/12 08:47:39;;;;;;;26.42;13.70;;;21.10;99.90;;;;;;5086082;28;20044;-57
2023/08/12 08:50:05;;;;;;;20.15;13.93;;;21.10;99.90;;;;;;5097725;27;20073;-57
2023/08/12 08:52:32;;;;;;;20.75;12.68;;;21.10;99.90;;;;;;5095716;27;20043;-55
2023/08/12 08:55:00;;;;;;;20.20;13.52;;;21.10;99.90;;;;;;5079236;27;20119;-55
2023/08/12 08:57:28;;;;;;;18.25;12.27;;;21.10;99.90;;;;;;5094546;28;20115;-57
2023/08/12 08:59:53;;;;;;;22.77;13.30;;;21.10;99.90;;;;;;5078565;28;20075;-56
2023/08/12 09:02:21;;;;;;;18.98;12.68;;;21.10;99.90;;;;;;5078623;27;20607;-57
2023/08/12 09:04:47;;;;;;;23.73;13.48;;;21.10;99.90;;;;;;5095785;28;20144;-56
2023/08/12 09:07:16;;;;;;;23.20;13.55;;;21.10;99.90;;;;;;5097710;27;20039;-56
2023/08/12 09:09:48;;;;;;;23.45;14.43;;;21.10;99.90;;;;;;5097050;28;20539;-58
2023/08/12 09:12:16;;;;;;;25.83;14.63;;;21.10;99.90;;;;;;5096345;27;20032;-57
2023/08/12 09:14:43;;;;;;;22.17;13.05;;;21.10;99.90;;;;;;5096402;28;20052;-57
2023/08/12 09:17:09;;;;;;;20.73;13.73;;;21.10;99.90;;;;;;5096405;27;20042;-58
2023/08/12 09:19:35;;;;;;;19.90;13.98;;;21.00;99.90;;;;;;5095597;27;20115;-57
2023/08/12 09:22:04;;;;;;;22.60;14.20;;;21.00;99.90;;;;;;5096699;28;20048;-56
2023/08/12 09:24:30;;;;;;;19.45;14.32;;;21.00;99.90;;;;;;5079484;27;20490;-56
2023/08/12 09:26:55;;;;;;;19.63;13.73;;;21.00;99.90;;;;;;5097194;27;20055;-57
2023/08/12 09:29:33;;;;;;;21.92;14.30;;;21.00;99.90;;;;;;5095290;27;20033;-56
2023/08/12 09:32:18;;;;;;;27.02;14.50;;;21.00;99.90;;;;;;5095193;28;20320;-56
2023/08/12 09:34:52;;;;;;;21.27;13.63;;;21.00;99.90;;;;;;5096440;28;20043;-56
2023/08/12 09:37:19;;;;;;;22.65;14.52;;;21.00;99.90;;;;;;5098231;27;20078;-57
2023/08/12 09:39:47;;;;;;;25.70;13.98;;;21.10;99.90;;;;;;5093554;28;20088;-58
2023/08/12 09:42:13;;;;;;;23.23;14.35;;;21.00;99.90;;;;;;5077090;28;20042;-56
2023/08/12 09:44:39;;;;;;;21.95;15.27;;;21.00;99.90;;;;;;5094516;28;20047;-58
2023/08/12 09:47:08;;;;;;;25.05;15.15;;;21.10;99.90;;;;;;5095081;27;20024;-56
2023/08/12 09:49:35;;;;;;;23.20;15.73;;;21.00;99.90;;;;;;5096995;27;20076;-56
2023/08/12 09:52:03;;;;;;;22.90;15.75;;;21.10;99.90;;;;;;5096692;27;20130;-57
2023/08/12 09:54:31;;;;;;;23.50;15.55;;;21.10;99.90;;;;;;5094464;27;20497;-55
2023/08/12 09:56:59;;;;;;;21.63;15.40;;;21.10;99.90;;;;;;5095522;28;20024;-57
2023/08/12 09:59:29;;;;;;;22.88;15.52;;;21.10;99.90;;;;;;5095762;27;20490;-56
2023/08/12 10:01:55;;;;;;;25.60;15.50;;;21.20;99.90;;;;;;5093915;28;20043;-56
2023/08/12 10:04:24;;;;;;;23.15;15.80;;;21.20;99.90;;;;;;5098004;28;20076;-57
2023/08/12 10:06:50;;;;;;;26.55;15.88;;;21.20;99.90;;;;;;5077832;28;21520;-57
2023/08/12 10:09:16;;;;;;;23.50;15.63;;;21.20;99.90;;;;;;5096258;28;20040;-55
2023/08/12 10:11:45;;;;;;;20.80;14.45;;;21.20;99.90;;;;;;5078083;28;20040;-56
2023/08/12 10:14:13;;;;;;;23.50;16.13;;;21.20;99.90;;;;;;5095264;27;20062;-58
2023/08/12 10:16:39;;;;;;;26.13;16.17;;;21.20;99.90;;;;;;5093539;27;20126;-56
2023/08/12 10:19:06;;;;;;;22.00;14.52;;;21.10;99.90;;;;;;5098266;27;20047;-58
2023/08/12 10:21:33;;;;;;;19.33;13.68;;;21.10;99.90;;;;;;5092345;27;20770;-58
2023/08/12 10:24:00;;;;;;;16.60;11.68;;;21.10;99.90;;;;;;5093834;28;20540;-58
2023/08/12 10:26:26;;;;;;;16.33;11.10;;;21.10;99.90;;;;;;5077861;28;20461;-58
2023/08/12 10:28:52;;;;;;;14.27;9.85;;;21.10;99.90;;;;;;5077267;28;20042;-57
2023/08/12 10:31:19;;;;;;;13.68;10.60;;;21.10;99.90;;;;;;5097634;27;20067;-57
2023/08/12 10:33:44;;;;;;;15.82;11.35;;;21.10;99.90;;;;;;5094160;27;20044;-58
2023/08/12 10:36:11;;;;;;;13.45;11.00;;;21.10;99.90;;;;;;5095900;28;20061;-58
2023/08/12 10:38:37;;;;;;;15.98;11.43;;;21.10;99.90;;;;;;5093560;28;20043;-58
2023/08/12 10:41:23;;;;;;;12.68;10.60;;;21.10;99.90;;;;;;5077371;27;20044;-56
2023/08/12 10:44:09;;;;;;;14.65;10.90;;;21.20;99.90;;;;;;5095191;27;20039;-56
2023/08/12 10:46:36;;;;;;;13.60;9.98;;;21.30;99.90;;;;;;5094588;27;20039;-58
2023/08/12 10:49:07;;;;;;;13.05;10.07;;;21.40;99.90;;;;;;5094954;27;20480;-56
2023/08/12 10:51:50;;;;;;;13.43;9.98;;;21.40;99.90;;;;;;5078169;28;20497;-57
2023/08/12 10:54:19;;;;;;;13.45;9.45;;;21.50;99.90;;;;;;5095094;28;20466;-57
2023/08/12 10:57:14;;;;;;;10.07;8.48;;;21.50;99.90;;;;;;5093244;28;20573;-58
2023/08/12 10:59:46;;;;;;;11.05;8.13;;;21.50;99.90;;;;;;5081757;28;20101;-58
2023/08/12 11:02:36;;;;;;;3.28;2.33;;;21.40;99.90;;;;;;5094642;27;20071;-58
2023/08/12 11:05:04;;;;;;;4.13;2.20;;;21.30;99.90;;;;;;5093915;28;20506;-57
2023/08/12 11:07:40;;;;;;;3.15;2.33;;;21.10;99.90;;;;;;5094640;28;20042;-57
2023/08/12 11:10:19;;;;;;;2.78;2.10;;;21.00;99.90;;;;;;5094299;28;20035;-58
2023/08/12 11:12:51;;;;;;;3.25;2.20;;;21.00;99.90;;;;;;5093517;28;20469;-58
2023/08/12 11:15:17;;;;;;;4.17;2.40;;;20.90;99.90;;;;;;5094021;27;20047;-58
2023/08/12 11:17:46;;;;;;;3.05;2.22;;;20.90;99.90;;;;;;5095369;28;20050;-58
2023/08/12 11:20:13;;;;;;;4.40;2.22;;;21.00;99.90;;;;;;5093828;28;20048;-58
2023/08/12 11:22:41;;;;;;;4.03;2.55;;;21.00;99.90;;;;;;5091549;28;20099;-57
2023/08/12 11:25:14;;;;;;;4.22;2.83;;;21.00;99.90;;;;;;5093114;28;20087;-57
2023/08/12 11:27:47;;;;;;;4.32;2.75;;;21.00;99.90;;;;;;5094005;28;20053;-57
2023/08/12 11:30:17;;;;;;;4.57;2.58;;;21.00;99.90;;;;;;5095515;28;20040;-57
2023/08/12 11:32:48;;;;;;;4.40;2.90;;;21.10;99.90;;;;;;5094060;28;20615;-58
2023/08/12 11:35:15;;;;;;;4.28;3.00;;;21.10;99.90;;;;;;5093219;28;20579;-57
2023/08/12 11:37:43;;;;;;;4.63;2.88;;;21.10;99.90;;;;;;5094708;28;20043;-57
2023/08/12 11:40:10;;;;;;;5.50;3.15;;;21.20;99.90;;;;;;5096457;28;20036;-58
2023/08/12 11:42:40;;;;;;;4.82;2.80;;;21.20;99.90;;;;;;5072521;28;20040;-59
2023/08/12 11:45:07;;;;;;;3.15;2.63;;;21.20;99.90;;;;;;5076468;28;20048;-57
2023/08/12 11:47:33;;;;;;;4.07;2.67;;;21.10;99.90;;;;;;5093510;28;20445;-56
2023/08/12 11:50:03;;;;;;;4.32;2.88;;;21.10;99.90;;;;;;5092192;28;20444;-58
2023/08/12 11:52:29;;;;;;;9.15;3.03;;;21.00;99.90;;;;;;5092641;28;20036;-58
2023/08/12 11:54:56;;;;;;;5.97;3.00;;;21.00;99.90;;;;;;5095652;28;20031;-58
2023/08/12 11:57:23;;;;;;;7.85;3.25;;;20.90;99.90;;;;;;5074917;28;20048;-57
2023/08/12 11:59:53;;;;;;;8.32;3.40;;;20.70;99.90;;;;;;5093197;28;20042;-58
2023/08/12 12:02:21;;;;;;;3.97;2.83;;;20.60;99.90;;;;;;5092773;28;20043;-58
2023/08/12 12:04:46;;;;;;;5.90;3.08;;;20.40;99.90;;;;;;5067436;28;20035;-58
2023/08/12 12:07:24;;;;;;;5.70;2.90;;;20.30;99.90;;;;;;5093245;28;20047;-59
2023/08/12 12:09:54;;;;;;;7.55;2.25;;;20.20;99.90;;;;;;5095146;27;20707;-57
2023/08/12 12:12:26;;;;;;;4.43;2.30;;;20.00;99.90;;;;;;5085613;28;20482;-57
2023/08/12 12:14:56;;;;;;;6.80;2.28;;;19.90;99.90;;;;;;5098626;27;20392;-58
2023/08/12 12:17:23;;;;;;;5.78;2.15;;;19.70;99.90;;;;;;5098256;28;20047;-57
2023/08/12 12:19:59;;;;;;;6.30;2.15;;;19.70;99.90;;;;;;5097753;27;20082;-58
2023/08/12 12:22:35;;;;;;;5.18;2.35;;;19.70;99.90;;;;;;5098884;27;20044;-58
2023/08/12 12:25:06;;;;;;;6.65;2.55;;;19.60;99.90;;;;;;5097410;28;20101;-58
2023/08/12 12:27:33;;;;;;;6.05;2.40;;;19.50;99.90;;;;;;5098061;27;20036;-58
2023/08/12 12:29:59;;;;;;;5.40;2.20;;;19.50;99.90;;;;;;5097919;28;20406;-58
2023/08/12 12:32:26;;;;;;;8.52;2.35;;;19.60;99.90;;;;;;5097158;27;20063;-57
2023/08/12 12:34:52;;;;;;;4.53;2.42;;;19.70;99.90;;;;;;5078775;28;20051;-58
2023/08/12 12:37:18;;;;;;;5.03;2.05;;;19.70;99.90;;;;;;5097605;28;20107;-57